createdAt,value
2022-09-10T04:59:38.365Z,996.33
2022-09-10T05:00:42.804Z,996.33
2022-09-10T05:01:47.437Z,996.29
2022-09-10T05:02:51.677Z,996.30
2022-09-10T05:03:56.104Z,996.29
2022-09-10T05:05:00.510Z,996.29
2022-09-10T05:06:04.920Z,996.28
2022-09-10T05:07:09.314Z,996.22
2022-09-10T05:08:13.732Z,996.24
2022-09-10T05:09:18.142Z,996.25
2022-09-10T05:10:22.551Z,996.23
2022-09-10T05:11:26.935Z,996.25
2022-09-10T05:12:31.334Z,996.23
2022-09-10T05:13:35.725Z,996.23
2022-09-10T05:14:40.144Z,996.26
2022-09-10T05:15:44.534Z,996.19
2022-09-10T05:16:48.980Z,996.19
2022-09-10T05:17:53.334Z,996.20
2022-09-10T05:18:57.764Z,996.20
2022-09-10T05:20:02.158Z,996.21
2022-09-10T05:21:06.547Z,996.24
2022-09-10T05:22:10.932Z,996.25
2022-09-10T05:23:15.344Z,996.25
2022-09-10T05:24:19.746Z,996.26
2022-09-10T05:25:24.155Z,996.26
2022-09-10T05:26:28.606Z,996.24
2022-09-10T05:27:32.997Z,996.24
2022-09-10T05:28:37.385Z,996.24
2022-09-10T05:29:41.812Z,996.24
2022-09-10T05:30:50.848Z,996.25
2022-09-10T05:31:50.600Z,996.22
2022-09-10T05:32:54.967Z,996.22
2022-09-10T05:33:59.391Z,996.25
2022-09-10T05:35:03.778Z,996.24
2022-09-10T05:36:08.187Z,996.29
2022-09-10T05:37:12.566Z,996.27
2022-09-10T05:38:16.948Z,996.26
2022-09-10T05:39:21.360Z,996.27
2022-09-10T05:40:25.746Z,996.27
2022-09-10T05:41:30.128Z,996.25
2022-09-10T05:42:34.517Z,996.28
2022-09-10T05:43:38.888Z,996.29
2022-09-10T05:44:43.313Z,996.29
2022-09-10T05:45:47.734Z,996.31
2022-09-10T05:46:52.119Z,996.31
2022-09-10T05:47:56.530Z,996.32
2022-09-10T05:49:01.018Z,996.32
